createdAt,value
2022-08-17T00:02:27.134Z,33.86
2022-08-17T00:05:36.758Z,33.96
2022-08-17T00:08:55.548Z,33.93
2022-08-17T00:12:41.014Z,33.84
2022-08-17T00:15:22.695Z,33.95
2022-08-17T00:19:01.748Z,33.89
2022-08-17T00:22:33.672Z,33.69
2022-08-17T00:25:20.726Z,33.34
2022-08-17T00:28:26.188Z,33.14
2022-08-17T00:31:32.200Z,33.51
2022-08-17T00:34:37.409Z,33.42
2022-08-17T00:37:41.194Z,33.24
2022-08-17T00:40:50.227Z,32.90
2022-08-17T00:44:02.014Z,32.99
2022-08-17T00:47:05.198Z,33.19
2022-08-17T00:50:11.556Z,32.97
2022-08-17T00:53:17.744Z,32.93
2022-08-17T00:56:25.158Z,32.60
2022-08-17T00:59:32.290Z,32.84
2022-08-17T01:02:41.332Z,33.05
2022-08-17T01:05:47.801Z,32.82
2022-08-17T01:08:57.778Z,32.00
2022-08-17T01:12:01.404Z,32.03
2022-08-17T01:15:05.761Z,31.81
2022-08-17T01:18:10.624Z,32.05
2022-08-17T01:21:48.498Z,32.01
2022-08-17T01:24:54.215Z,32.13
2022-08-17T01:27:57.575Z,31.88
2022-08-17T01:31:02.975Z,31.92
2022-08-17T01:34:09.418Z,31.91
2022-08-17T01:37:14.340Z,31.41
2022-08-17T01:40:20.446Z,31.57
2022-08-17T01:43:27.987Z,31.46
2022-08-17T01:46:35.363Z,31.21
2022-08-17T01:49:38.469Z,31.03
2022-08-17T01:52:42.480Z,30.91
2022-08-17T01:55:55.160Z,30.81
2022-08-17T01:58:58.463Z,31.03
2022-08-17T02:02:01.802Z,30.73
2022-08-17T02:05:05.517Z,30.88
2022-08-17T02:08:08.653Z,31.30
2022-08-17T02:11:23.447Z,31.09
2022-08-17T02:14:26.959Z,30.86
2022-08-17T02:17:30.086Z,30.81
2022-08-17T02:20:41.765Z,30.42
2022-08-17T02:23:50.839Z,30.23
2022-08-17T02:26:54.042Z,30.58
2022-08-17T02:29:59.612Z,30.60
2022-08-17T02:33:04.203Z,30.42
2022-08-17T02:36:13.671Z,29.98
2022-08-17T02:39:17.167Z,30.13
2022-08-17T02:42:09.959Z,30.31
2022-08-17T02:45:19.416Z,30.23
2022-08-17T02:48:31.280Z,29.99
2022-08-17T02:51:35.190Z,29.86
2022-08-17T02:54:39.814Z,29.97
2022-08-17T02:57:45.554Z,30.11
2022-08-17T03:00:48.907Z,30.04
2022-08-17T03:03:52.251Z,30.06
2022-08-17T03:06:58.053Z,30.02
2022-08-17T03:10:01.277Z,29.87
2022-08-17T03:13:04.399Z,29.94
2022-08-17T03:16:08.665Z,29.88
2022-08-17T03:19:11.858Z,29.91
2022-08-17T03:22:36.085Z,30.13
2022-08-17T03:25:41.089Z,30.13
2022-08-17T03:28:46.600Z,30.15
2022-08-17T03:31:50.712Z,29.70
2022-08-17T03:35:01.171Z,29.40
2022-08-17T03:38:05.706Z,29.70
2022-08-17T03:41:12.315Z,29.43
2022-08-17T03:44:18.230Z,29.28
2022-08-17T03:47:21.767Z,29.12
2022-08-17T03:50:25.037Z,29.65
2022-08-17T03:53:29.539Z,29.89
2022-08-17T03:56:33.369Z,29.92
2022-08-17T03:59:37.296Z,29.48
2022-08-17T04:02:41.197Z,29.00
2022-08-17T04:05:44.466Z,29.37
2022-08-17T04:08:47.573Z,29.55
2022-08-17T04:11:50.792Z,29.60
2022-08-17T04:14:54.914Z,29.38
2022-08-17T04:17:58.913Z,29.66
2022-08-17T04:21:04.561Z,28.97
2022-08-17T04:24:07.963Z,29.47
2022-08-17T04:27:11.056Z,29.62
2022-08-17T04:30:14.387Z,29.51
2022-08-17T04:33:23.122Z,29.63
2022-08-17T04:36:28.806Z,29.28
2022-08-17T04:39:33.856Z,29.12
2022-08-17T04:42:37.134Z,28.93
2022-08-17T04:45:55.058Z,28.81
2022-08-17T04:49:00.959Z,29.16
2022-08-17T04:52:04.762Z,29.09
2022-08-17T04:55:08.751Z,29.24
2022-08-17T04:58:11.897Z,29.41
2022-08-17T05:01:16.483Z,29.49
2022-08-17T05:04:35.131Z,29.35
2022-08-17T05:07:38.506Z,29.44
2022-08-17T05:10:45.406Z,29.13
2022-08-17T05:13:49.430Z,29.01
2022-08-17T05:16:54.678Z,29.27
2022-08-17T05:20:00.189Z,28.96
2022-08-17T05:23:07.113Z,29.13
2022-08-17T05:26:26.340Z,29.17
2022-08-17T05:29:35.650Z,29.25
2022-08-17T05:32:48.325Z,29.10
2022-08-17T05:35:54.626Z,29.07
2022-08-17T05:38:57.736Z,29.04
2022-08-17T05:42:02.719Z,28.95
2022-08-17T05:45:06.724Z,29.04
2022-08-17T05:48:10.005Z,28.91
2022-08-17T05:51:28.380Z,28.48
2022-08-17T05:54:50.989Z,28.45
2022-08-17T05:58:29.408Z,28.34
2022-08-17T06:01:32.476Z,28.28
2022-08-17T06:05:13.875Z,28.51
2022-08-17T06:08:24.900Z,28.69
2022-08-17T06:11:46.194Z,28.76
2022-08-17T06:14:55.024Z,28.50
2022-08-17T06:18:03.170Z,28.75
2022-08-17T06:21:08.476Z,28.75
2022-08-17T06:24:22.495Z,28.70
2022-08-17T06:27:41.461Z,28.77
2022-08-17T06:30:58.622Z,28.79
2022-08-17T06:34:07.206Z,28.51
2022-08-17T06:37:32.925Z,28.36
2022-08-17T06:41:02.982Z,28.52
2022-08-17T06:44:43.583Z,28.62
2022-08-17T06:48:03.428Z,27.85
2022-08-17T06:51:22.659Z,27.81
2022-08-17T06:54:43.605Z,27.98
2022-08-17T06:57:52.539Z,27.77
2022-08-17T07:00:58.712Z,27.71
2022-08-17T07:04:24.400Z,28.00
2022-08-17T07:07:27.531Z,27.99
2022-08-17T07:10:53.285Z,28.21
2022-08-17T07:14:17.300Z,28.16
2022-08-17T07:17:46.824Z,27.74
2022-08-17T07:20:48.973Z,27.55
2022-08-17T07:24:08.134Z,27.66
2022-08-17T07:27:11.246Z,27.66
2022-08-17T07:30:47.129Z,27.74
2022-08-17T07:34:07.448Z,27.61
2022-08-17T07:37:10.713Z,27.80
2022-08-17T07:40:23.701Z,28.02
2022-08-17T07:43:48.394Z,27.90
2022-08-17T07:46:53.441Z,27.90
2022-08-17T07:49:56.816Z,27.51
2022-08-17T07:53:23.260Z,27.54
2022-08-17T07:56:43.307Z,27.52
2022-08-17T08:00:01.846Z,27.29
2022-08-17T08:03:26.399Z,27.38
2022-08-17T08:06:29.472Z,27.25
2022-08-17T08:09:42.907Z,27.37
2022-08-17T08:12:48.333Z,27.36
2022-08-17T08:15:54.165Z,27.17
2022-08-17T08:19:00.805Z,27.20
2022-08-17T08:22:09.236Z,27.34
2022-08-17T08:25:28.818Z,27.40
2022-08-17T08:28:46.287Z,27.64
2022-08-17T08:32:11.767Z,27.54
2022-08-17T08:35:39.788Z,27.89
2022-08-17T08:38:52.009Z,28.06
2022-08-17T08:42:40.150Z,28.04
2022-08-17T08:46:08.196Z,28.14
2022-08-17T08:49:51.872Z,28.05
2022-08-17T08:53:01.501Z,27.90
2022-08-17T08:56:17.655Z,27.50
2022-08-17T08:59:57.624Z,27.65
2022-08-17T09:03:36.718Z,27.85
2022-08-17T09:07:27.233Z,27.70
2022-08-17T09:10:39.861Z,27.81
2022-08-17T09:14:21.617Z,27.91
2022-08-17T09:18:14.680Z,27.73
2022-08-17T09:21:27.875Z,27.52
2022-08-17T09:24:44.204Z,27.85
2022-08-17T09:28:00.777Z,28.04
2022-08-17T09:31:10.234Z,27.92
2022-08-17T09:34:17.270Z,27.90
2022-08-17T09:37:38.526Z,27.63
2022-08-17T09:40:52.316Z,27.70
2022-08-17T09:43:59.636Z,27.70
2022-08-17T09:47:26.954Z,27.52
2022-08-17T09:51:04.200Z,27.50
2022-08-17T09:54:21.055Z,27.75
2022-08-17T09:57:31.826Z,27.45
2022-08-17T10:00:38.166Z,27.60
2022-08-17T10:04:08.748Z,27.39
2022-08-17T10:07:19.391Z,27.26
2022-08-17T10:10:43.831Z,27.51
2022-08-17T10:14:03.601Z,27.31
2022-08-17T10:17:50.128Z,27.47
2022-08-17T10:21:00.644Z,27.53
2022-08-17T10:24:21.328Z,27.51
2022-08-17T10:27:33.780Z,27.51
2022-08-17T10:30:46.328Z,27.09
2022-08-17T10:34:21.495Z,27.06
2022-08-17T10:37:43.409Z,27.40
2022-08-17T10:40:54.138Z,27.42
2022-08-17T10:44:38.549Z,27.50
2022-08-17T10:48:05.631Z,27.40
2022-08-17T10:51:32.216Z,26.87
2022-08-17T10:54:47.127Z,27.24
2022-08-17T10:57:51.201Z,27.27
2022-08-17T11:00:54.401Z,27.22
2022-08-17T11:04:00.019Z,27.34
2022-08-17T11:07:11.374Z,27.51
2022-08-17T11:10:25.331Z,27.42
2022-08-17T11:14:05.540Z,27.20
2022-08-17T11:17:47.961Z,27.27
2022-08-17T11:21:26.251Z,27.34
2022-08-17T11:24:36.414Z,27.34
2022-08-17T11:27:41.897Z,27.45
2022-08-17T11:30:49.643Z,27.45
2022-08-17T11:34:05.098Z,27.36
2022-08-17T11:37:47.161Z,27.45
2022-08-17T11:41:31.734Z,27.43
2022-08-17T11:44:57.487Z,27.39
2022-08-17T11:48:39.148Z,27.23
2022-08-17T11:52:17.664Z,27.07
2022-08-17T11:55:39.625Z,27.13
2022-08-17T11:58:46.567Z,27.05
2022-08-17T12:01:56.715Z,27.14
2022-08-17T12:05:18.167Z,27.10
2022-08-17T12:08:22.535Z,27.01
2022-08-17T12:12:11.854Z,27.09
2022-08-17T12:15:19.368Z,27.09
2022-08-17T12:18:32.048Z,27.01
2022-08-17T12:22:04.164Z,26.92
2022-08-17T12:25:35.336Z,26.95
2022-08-17T12:28:40.065Z,26.76
2022-08-17T12:31:45.903Z,26.78
2022-08-17T12:34:51.042Z,26.69
2022-08-17T12:37:54.144Z,26.54
2022-08-17T12:40:58.912Z,26.60
2022-08-17T12:44:02.066Z,26.77
2022-08-17T12:47:19.452Z,26.84
2022-08-17T12:50:29.596Z,26.95
2022-08-17T12:53:34.380Z,27.04
2022-08-17T12:56:37.516Z,27.09
2022-08-17T12:59:48.954Z,27.21
2022-08-17T13:03:04.006Z,27.49
2022-08-17T13:06:12.830Z,27.53
2022-08-17T13:09:21.783Z,27.46
2022-08-17T13:12:39.852Z,27.53
2022-08-17T13:15:51.539Z,27.35
2022-08-17T13:18:58.359Z,27.48
2022-08-17T13:22:04.325Z,27.47
2022-08-17T13:25:07.753Z,27.82
2022-08-17T13:28:18.925Z,27.80
2022-08-17T13:31:51.877Z,27.71
2022-08-17T13:35:12.454Z,27.83
2022-08-17T13:38:46.348Z,28.12
2022-08-17T13:41:50.731Z,27.98
2022-08-17T13:44:55.875Z,28.30
2022-08-17T13:48:17.322Z,28.73
2022-08-17T13:51:43.694Z,29.55
2022-08-17T13:54:52.534Z,28.67
2022-08-17T13:58:05.025Z,28.65
2022-08-17T14:01:29.889Z,28.77
2022-08-17T14:04:33.849Z,28.66
2022-08-17T14:07:39.881Z,29.71
2022-08-17T14:10:42.952Z,29.71
2022-08-17T14:13:46.146Z,29.16
2022-08-17T14:16:51.093Z,28.97
2022-08-17T14:19:56.772Z,29.17
2022-08-17T14:22:59.895Z,30.18
2022-08-17T14:26:05.509Z,30.45
2022-08-17T14:29:15.372Z,30.42
2022-08-17T14:32:21.636Z,30.14
2022-08-17T14:35:25.155Z,30.51
2022-08-17T14:38:29.348Z,30.89
2022-08-17T14:41:32.431Z,31.06
2022-08-17T14:44:36.292Z,30.52
2022-08-17T14:47:41.765Z,30.23
2022-08-17T14:50:44.863Z,30.20
2022-08-17T14:53:49.150Z,30.51
2022-08-17T14:56:56.988Z,30.00
2022-08-17T15:00:15.970Z,30.14
2022-08-17T15:03:19.105Z,30.14
2022-08-17T15:06:23.046Z,31.10
2022-08-17T15:09:26.407Z,31.29
2022-08-17T15:12:33.055Z,31.11
2022-08-17T15:15:37.013Z,31.88
2022-08-17T15:18:40.755Z,32.54
2022-08-17T15:21:43.978Z,32.01
2022-08-17T15:24:47.038Z,31.83
2022-08-17T15:27:50.287Z,31.81
2022-08-17T15:30:54.279Z,32.26
2022-08-17T15:33:57.340Z,32.18
2022-08-17T15:37:00.438Z,32.23
2022-08-17T15:40:03.750Z,31.67
2022-08-17T15:43:08.876Z,31.76
2022-08-17T15:46:14.908Z,32.00
2022-08-17T15:49:18.060Z,32.18
2022-08-17T15:52:24.928Z,32.41
2022-08-17T15:55:30.231Z,33.23
2022-08-17T15:58:34.609Z,33.22
2022-08-17T16:03:01.076Z,32.57
2022-08-17T16:05:12.466Z,33.10
2022-08-17T16:08:20.938Z,33.43
2022-08-17T16:11:25.059Z,33.57
2022-08-17T16:14:30.283Z,34.08
2022-08-17T16:17:40.261Z,34.54
2022-08-17T16:20:44.112Z,34.61
2022-08-17T16:23:49.817Z,35.53
2022-08-17T16:26:52.942Z,33.75
2022-08-17T16:29:56.052Z,34.19
2022-08-17T16:33:01.243Z,32.96
2022-08-17T16:36:04.743Z,33.02
2022-08-17T16:39:08.328Z,33.41
2022-08-17T16:42:28.013Z,33.22
2022-08-17T16:45:31.269Z,34.17
2022-08-17T16:48:36.343Z,34.34
2022-08-17T16:51:39.436Z,35.27
2022-08-17T16:54:47.194Z,35.64
2022-08-17T16:57:50.895Z,36.30
2022-08-17T17:00:54.198Z,35.26
2022-08-17T17:04:01.699Z,35.57
2022-08-17T17:07:18.049Z,36.22
2022-08-17T17:10:24.263Z,36.37
2022-08-17T17:13:33.062Z,36.04
2022-08-17T17:16:44.568Z,36.73
2022-08-17T17:20:18.644Z,34.91
2022-08-17T17:23:49.362Z,35.44
2022-08-17T17:27:09.659Z,35.28
2022-08-17T17:30:16.125Z,34.21
2022-08-17T17:33:26.020Z,34.31
2022-08-17T17:36:45.736Z,34.67
2022-08-17T17:39:52.925Z,35.34
2022-08-17T17:43:05.605Z,35.57
2022-08-17T17:46:28.936Z,34.87
2022-08-17T17:49:38.463Z,34.57
2022-08-17T17:52:47.243Z,35.32
2022-08-17T17:56:05.736Z,36.39
2022-08-17T17:59:27.051Z,36.73
2022-08-17T18:02:55.523Z,36.45
2022-08-17T18:06:09.822Z,35.93
2022-08-17T18:09:43.976Z,35.45
2022-08-17T18:13:12.531Z,35.64
2022-08-17T18:16:15.592Z,36.27
2022-08-17T18:19:20.331Z,36.59
2022-08-17T18:22:24.441Z,37.22
2022-08-17T18:25:42.980Z,36.96
2022-08-17T18:28:51.946Z,36.64
2022-08-17T18:32:19.125Z,36.90
2022-08-17T18:35:27.674Z,37.40
2022-08-17T18:38:44.436Z,36.92
2022-08-17T18:41:49.977Z,37.06
2022-08-17T18:44:55.317Z,37.77
2022-08-17T18:47:58.731Z,37.79
2022-08-17T18:51:21.468Z,37.47
2022-08-17T18:55:06.135Z,36.39
2022-08-17T18:58:19.708Z,36.90
2022-08-17T19:01:46.998Z,36.54
2022-08-17T19:05:16.482Z,35.60
2022-08-17T19:08:31.519Z,35.67
2022-08-17T19:11:35.635Z,35.77
2022-08-17T19:14:39.101Z,36.14
2022-08-17T19:18:04.921Z,36.10
2022-08-17T19:21:16.806Z,36.17
2022-08-17T19:24:22.357Z,36.52
2022-08-17T19:27:51.519Z,35.41
2022-08-17T19:31:03.382Z,35.68
2022-08-17T19:34:06.470Z,36.17
2022-08-17T19:37:56.668Z,36.46
2022-08-17T19:41:16.797Z,36.89
2022-08-17T19:44:45.771Z,37.31
2022-08-17T19:48:03.166Z,36.82
2022-08-17T19:51:12.300Z,36.47
2022-08-17T19:54:47.330Z,37.12
2022-08-17T19:58:33.234Z,36.81
2022-08-17T20:01:45.974Z,36.08
2022-08-17T20:04:52.432Z,35.60
2022-08-17T20:08:02.938Z,35.76
2022-08-17T20:11:12.038Z,36.24
2022-08-17T20:14:31.955Z,36.70
2022-08-17T20:17:41.195Z,37.31
2022-08-17T20:20:54.813Z,36.75
2022-08-17T20:24:20.494Z,37.20
2022-08-17T20:27:31.601Z,36.38
2022-08-17T20:30:43.013Z,36.65
2022-08-17T20:33:46.106Z,36.64
2022-08-17T20:37:09.447Z,37.34
2022-08-17T20:40:19.239Z,36.52
2022-08-17T20:43:34.743Z,36.92
2022-08-17T20:46:37.919Z,36.47
2022-08-17T20:49:46.501Z,36.33
2022-08-17T20:53:00.192Z,36.50
2022-08-17T20:56:05.583Z,36.58
2022-08-17T20:59:08.661Z,36.50
2022-08-17T21:02:19.008Z,37.18
2022-08-17T21:05:59.871Z,37.49
2022-08-17T21:09:28.580Z,37.54
2022-08-17T21:12:49.309Z,37.80
2022-08-17T21:16:01.487Z,36.92
2022-08-17T21:20:00.595Z,37.44
2022-08-17T21:23:28.890Z,36.78
2022-08-17T21:27:04.069Z,36.85
2022-08-17T21:30:09.965Z,37.32
2022-08-17T21:33:33.636Z,35.51
2022-08-17T21:36:36.721Z,34.53
2022-08-17T21:39:41.387Z,34.59
2022-08-17T21:42:54.134Z,34.44
2022-08-17T21:46:04.914Z,33.85
2022-08-17T21:49:13.361Z,33.56
2022-08-17T21:52:19.534Z,32.95
2022-08-17T21:55:27.615Z,33.10
2022-08-17T21:58:36.997Z,33.18
2022-08-17T22:01:41.650Z,32.62
2022-08-17T22:04:59.989Z,32.47
2022-08-17T22:08:16.842Z,32.13
2022-08-17T22:11:20.079Z,32.16
2022-08-17T22:14:52.647Z,31.88
2022-08-17T22:17:55.952Z,32.04
2022-08-17T22:21:02.663Z,31.98
2022-08-17T22:24:16.256Z,32.00
2022-08-17T22:27:21.318Z,31.85
2022-08-17T22:30:35.435Z,31.99
2022-08-17T22:33:44.406Z,31.61
2022-08-17T22:36:47.675Z,31.93
2022-08-17T22:40:00.995Z,32.06
2022-08-17T22:43:04.535Z,31.74
2022-08-17T22:46:09.596Z,31.98
2022-08-17T22:49:12.906Z,32.10
2022-08-17T22:52:16.018Z,31.89
2022-08-17T22:55:19.615Z,32.03
2022-08-17T22:58:25.023Z,32.25
2022-08-17T23:01:35.720Z,32.50
2022-08-17T23:04:42.730Z,32.47
2022-08-17T23:07:47.269Z,31.98
2022-08-17T23:10:50.419Z,32.26
2022-08-17T23:13:58.366Z,31.79
2022-08-17T23:17:03.858Z,31.73
2022-08-17T23:20:08.732Z,31.90
2022-08-17T23:23:14.146Z,32.21
2022-08-17T23:26:22.784Z,32.42
2022-08-17T23:29:29.293Z,32.31
2022-08-17T23:32:32.501Z,31.94
2022-08-17T23:35:40.369Z,31.95
2022-08-17T23:38:45.368Z,32.20
2022-08-17T23:41:48.676Z,31.85
2022-08-17T23:44:51.831Z,31.93
2022-08-17T23:47:54.940Z,32.03
2022-08-17T23:50:58.404Z,31.99
2022-08-17T23:54:13.986Z,32.01
2022-08-17T23:57:19.733Z,31.50
